Redbank, Texas
Current Conditions -  °F | °C
As of 10:53 AM on Sunday 23 Nov 2014 (Local Time) from KTXK Reporting Station
Overcast Overcast  
Wind Chill: 62°   Ceiling: 600
Heat Index: 62°   Visibility: 10mi
Dew Point: 62°   Wind: 8mph
Humidity: 100%   Direction: 220°SW
Pressure: 29.5"   Gusts: NA
Location:  33.474°N, 94.2882°W
Report Text: KTXK 231653Z 22007KT 10SM OVC006 17/17 A2950 RMK AO2 RAE06 SLP986 P0000 T01670167 $
Loading
Personal Weather Stations






























Interactive Weather Map New forecast layout! Learn more

10-Day Weather Forecast

Advertisements
Track Severe Weather on mobile